createdAt,value
2018-01-27T00:00:31.502Z,7.77
2018-01-27T00:03:00.576Z,8.67
2018-01-27T00:05:27.245Z,8.40
2018-01-27T00:07:54.244Z,8.87
2018-01-27T00:10:20.906Z,9.07
2018-01-27T00:12:47.503Z,9.50
2018-01-27T00:15:14.173Z,8.30
2018-01-27T00:17:40.842Z,8.63
2018-01-27T00:20:07.874Z,8.23
2018-01-27T00:22:52.494Z,7.30
2018-01-27T00:25:19.132Z,8.70
2018-01-27T00:27:45.755Z,8.10
2018-01-27T00:30:12.403Z,8.37
2018-01-27T00:32:58.274Z,8.07
2018-01-27T00:35:25.235Z,8.90
2018-01-27T00:37:51.909Z,8.50
2018-01-27T00:40:18.527Z,8.13
2018-01-27T00:42:45.184Z,9.00
2018-01-27T00:45:11.803Z,8.87
2018-01-27T00:47:38.430Z,9.50
2018-01-27T00:50:05.118Z,8.30
2018-01-27T00:52:32.130Z,8.67
2018-01-27T00:54:58.810Z,8.23
2018-01-27T00:57:25.932Z,8.60
2018-01-27T00:59:52.567Z,8.83
2018-01-27T01:02:19.151Z,9.17
2018-01-27T01:04:45.848Z,8.80
2018-01-27T01:07:12.435Z,8.63
2018-01-27T01:10:04.448Z,7.90
2018-01-27T01:12:31.463Z,8.03
2018-01-27T01:14:58.147Z,9.20
2018-01-27T01:17:24.799Z,8.33
2018-01-27T01:19:51.404Z,9.17
2018-01-27T01:22:18.788Z,10.07
2018-01-27T01:24:45.373Z,10.27
2018-01-27T01:27:12.048Z,10.10
2018-01-27T01:29:38.669Z,10.10
2018-01-27T01:32:06.000Z,12.37
2018-01-27T01:34:32.967Z,11.10
2018-01-27T01:37:00.020Z,11.33
2018-01-27T01:39:27.123Z,12.00
2018-01-27T01:41:53.712Z,11.10
2018-01-27T01:44:26.690Z,12.17
2018-01-27T01:46:53.336Z,11.23
2018-01-27T01:49:24.932Z,9.33
2018-01-27T01:51:51.624Z,9.93
2018-01-27T01:54:32.958Z,10.13
2018-01-27T01:56:59.931Z,9.70
2018-01-27T01:59:26.573Z,7.57
2018-01-27T02:01:53.204Z,10.83
2018-01-27T02:04:19.870Z,8.60
2018-01-27T02:06:46.890Z,9.73
2018-01-27T02:09:13.515Z,10.33
2018-01-27T02:11:56.655Z,9.27
2018-01-27T02:14:23.292Z,10.33
2018-01-27T02:16:49.975Z,11.00
2018-01-27T02:19:16.631Z,8.93
2018-01-27T02:21:43.239Z,10.07
2018-01-27T02:24:09.903Z,8.50
2018-01-27T02:26:36.582Z,9.10
2018-01-27T02:29:03.201Z,8.13
2018-01-27T02:31:29.880Z,9.27
2018-01-27T02:34:16.037Z,8.17
2018-01-27T02:36:42.715Z,7.57
2018-01-27T02:39:09.314Z,7.93
2018-01-27T02:41:35.904Z,8.20
2018-01-27T02:44:03.254Z,8.20
2018-01-27T02:46:30.278Z,8.53
2018-01-27T02:48:56.905Z,8.67
2018-01-27T02:51:23.827Z,7.47
2018-01-27T02:53:52.441Z,8.17
2018-01-27T02:56:19.120Z,8.03
2018-01-27T02:58:45.928Z,7.63
2018-01-27T03:01:12.986Z,6.77
2018-01-27T03:03:44.806Z,7.50
2018-01-27T03:06:11.486Z,7.50
2018-01-27T03:08:38.513Z,7.00
2018-01-27T03:11:05.133Z,7.93
2018-01-27T03:13:31.804Z,7.00
2018-01-27T03:15:58.426Z,7.53
2018-01-27T03:18:25.084Z,7.83
2018-01-27T03:20:51.725Z,6.40
2018-01-27T03:23:18.374Z,8.00
2018-01-27T03:25:45.039Z,7.43
2018-01-27T03:28:11.719Z,8.90
2018-01-27T03:30:38.422Z,8.27
2018-01-27T03:33:05.244Z,8.20
2018-01-27T03:35:31.902Z,7.87
2018-01-27T03:37:58.524Z,7.93
2018-01-27T03:40:25.187Z,6.90
2018-01-27T03:42:51.831Z,7.87
2018-01-27T03:45:18.781Z,7.23
2018-01-27T03:47:45.405Z,6.63
2018-01-27T03:50:11.974Z,7.67
2018-01-27T03:52:38.610Z,8.23
2018-01-27T03:55:05.263Z,8.27
2018-01-27T03:57:32.363Z,7.00
2018-01-27T03:59:58.979Z,6.70
2018-01-27T04:02:25.632Z,7.00
2018-01-27T04:04:52.371Z,8.53
2018-01-27T04:07:19.014Z,7.20
2018-01-27T04:09:45.611Z,6.67
2018-01-27T04:12:12.996Z,7.53
2018-01-27T04:14:39.679Z,7.13
2018-01-27T04:17:06.366Z,6.47
2018-01-27T04:19:33.411Z,7.23
2018-01-27T04:22:00.372Z,7.10
2018-01-27T04:24:26.996Z,7.13
2018-01-27T04:26:53.678Z,8.37
2018-01-27T04:29:20.766Z,6.67
2018-01-27T04:31:47.448Z,9.23
2018-01-27T04:34:14.431Z,8.43
2018-01-27T04:36:41.025Z,6.57
2018-01-27T04:39:07.628Z,6.33
2018-01-27T04:41:34.270Z,8.80
2018-01-27T04:44:00.875Z,7.50
2018-01-27T04:46:39.387Z,9.30
2018-01-27T04:49:06.015Z,8.93
2018-01-27T04:51:32.667Z,8.80
2018-01-27T04:54:00.319Z,8.27
2018-01-27T04:56:26.964Z,10.93
2018-01-27T04:58:53.617Z,9.10
2018-01-27T05:01:24.205Z,8.70
2018-01-27T05:03:50.860Z,11.63
2018-01-27T05:06:36.881Z,9.40
2018-01-27T05:09:03.549Z,8.17
2018-01-27T05:11:30.732Z,8.60
2018-01-27T05:13:57.342Z,9.27
2018-01-27T05:16:24.014Z,8.20
2018-01-27T05:19:02.074Z,9.67
2018-01-27T05:21:33.101Z,10.60
2018-01-27T05:23:59.752Z,9.50
2018-01-27T05:26:26.331Z,12.90
2018-01-27T05:28:52.982Z,9.67
2018-01-27T05:31:19.600Z,11.13
2018-01-27T05:33:46.489Z,10.17
2018-01-27T05:36:13.147Z,11.40
2018-01-27T05:38:39.735Z,10.23
2018-01-27T05:41:06.388Z,10.27
2018-01-27T05:43:33.004Z,10.03
2018-01-27T05:45:59.636Z,11.53
2018-01-27T05:48:26.370Z,9.47
2018-01-27T05:50:52.980Z,8.70
2018-01-27T05:53:19.670Z,9.77
2018-01-27T05:55:48.246Z,8.80
2018-01-27T05:58:14.890Z,10.43
2018-01-27T06:00:41.554Z,9.93
2018-01-27T06:03:08.302Z,10.07
2018-01-27T06:05:34.982Z,11.90
2018-01-27T06:08:01.665Z,10.97
2018-01-27T06:10:28.315Z,10.50
2018-01-27T06:12:54.963Z,11.50
2018-01-27T06:15:21.648Z,10.63
2018-01-27T06:17:48.276Z,11.23
2018-01-27T06:20:14.929Z,12.77
2018-01-27T06:22:42.506Z,10.17
2018-01-27T06:25:09.140Z,11.50
2018-01-27T06:27:35.784Z,11.83
2018-01-27T06:30:19.699Z,10.10
2018-01-27T06:32:46.409Z,11.80
2018-01-27T06:35:13.149Z,12.30
2018-01-27T06:37:39.826Z,14.20
2018-01-27T06:40:06.438Z,13.33
2018-01-27T06:48:22.969Z,11.87
2018-01-27T06:50:49.543Z,11.07
2018-01-27T06:53:33.088Z,11.87
2018-01-27T06:55:59.679Z,12.90
2018-01-27T06:58:26.317Z,12.20
2018-01-27T07:00:52.928Z,10.30
2018-01-27T07:03:19.563Z,13.10
2018-01-27T07:05:46.218Z,10.87
2018-01-27T07:08:13.235Z,11.17
2018-01-27T07:10:39.885Z,12.77
2018-01-27T07:13:06.552Z,12.43
2018-01-27T07:15:33.603Z,11.50
2018-01-27T07:18:00.222Z,11.23
2018-01-27T07:20:26.827Z,11.13
2018-01-27T07:22:53.437Z,11.27
2018-01-27T07:25:20.077Z,11.53
2018-01-27T07:27:47.064Z,12.67
2018-01-27T07:30:13.756Z,14.60
2018-01-27T07:32:40.756Z,14.70
2018-01-27T07:35:07.433Z,36.40
2018-01-27T07:37:44.601Z,16.80
2018-01-27T07:40:11.260Z,16.63
2018-01-27T07:42:37.887Z,15.43
2018-01-27T07:45:04.526Z,15.47
2018-01-27T07:47:31.503Z,15.63
2018-01-27T07:49:58.092Z,21.47
2018-01-27T07:52:24.929Z,12.40
2018-01-27T07:54:59.286Z,11.23
2018-01-27T07:57:26.289Z,13.03
2018-01-27T07:59:52.973Z,12.97
2018-01-27T08:02:20.023Z,10.63
2018-01-27T08:04:46.603Z,17.07
2018-01-27T08:07:13.325Z,13.03
2018-01-27T08:09:39.953Z,12.80
2018-01-27T08:12:06.590Z,13.70
2018-01-27T08:14:33.284Z,12.70
2018-01-27T08:16:59.884Z,15.00
2018-01-27T08:22:18.296Z,13.07
2018-01-27T08:24:59.463Z,12.63
2018-01-27T08:27:26.204Z,14.27
2018-01-27T08:29:52.782Z,13.70
2018-01-27T08:32:19.420Z,12.20
2018-01-27T08:34:46.044Z,17.00
2018-01-27T08:37:13.451Z,11.20
2018-01-27T08:39:40.100Z,13.27
2018-01-27T08:42:06.731Z,15.60
2018-01-27T08:44:33.438Z,6.97
2018-01-27T08:47:00.092Z,15.87
2018-01-27T08:49:26.746Z,12.80
2018-01-27T08:51:53.319Z,11.27
2018-01-27T08:54:19.996Z,11.77
2018-01-27T08:56:46.681Z,16.87
2018-01-27T09:02:05.824Z,21.70
2018-01-27T09:04:57.452Z,18.67
2018-01-27T09:07:25.156Z,19.63
2018-01-27T09:09:55.948Z,17.83
2018-01-27T09:12:22.622Z,18.43
2018-01-27T09:14:57.637Z,19.93
2018-01-27T09:17:26.530Z,20.23
2018-01-27T09:19:53.174Z,19.67
2018-01-27T09:22:19.840Z,21.13
2018-01-27T09:24:46.480Z,15.67
2018-01-27T09:27:34.116Z,16.60
2018-01-27T09:30:00.725Z,15.43
2018-01-27T09:32:27.302Z,19.60
2018-01-27T09:34:54.365Z,19.03
2018-01-27T09:37:31.623Z,18.00
2018-01-27T09:39:58.282Z,17.03
2018-01-27T09:42:25.329Z,15.63
2018-01-27T09:44:51.990Z,16.70
2018-01-27T09:47:18.643Z,10.43
2018-01-27T09:49:51.175Z,17.93
2018-01-27T09:52:18.268Z,19.33
2018-01-27T09:54:44.998Z,21.00
2018-01-27T09:57:15.220Z,15.07
2018-01-27T09:59:41.889Z,12.80
2018-01-27T10:02:24.977Z,18.33
2018-01-27T10:04:51.714Z,18.17
2018-01-27T10:07:21.782Z,19.77
2018-01-27T10:09:48.452Z,16.07
2018-01-27T10:12:15.154Z,17.87
2018-01-27T10:14:41.771Z,15.70
2018-01-27T10:17:23.219Z,18.47
2018-01-27T10:19:49.834Z,16.50
2018-01-27T10:22:16.578Z,15.93
2018-01-27T10:25:04.875Z,12.33
2018-01-27T10:27:35.157Z,16.27
2018-01-27T10:30:02.195Z,18.40
2018-01-27T10:32:28.892Z,16.83
2018-01-27T10:35:03.380Z,15.40
2018-01-27T10:37:29.984Z,6.27
2018-01-27T10:39:56.637Z,10.90
2018-01-27T10:42:23.282Z,10.20
2018-01-27T10:44:50.436Z,12.73
2018-01-27T10:47:17.812Z,10.77
2018-01-27T10:49:44.461Z,9.50
2018-01-27T10:52:11.489Z,8.87
2018-01-27T10:54:38.136Z,11.30
2018-01-27T10:57:11.075Z,8.27
2018-01-27T10:59:37.671Z,11.50
2018-01-27T11:02:05.302Z,7.77
2018-01-27T11:04:31.985Z,11.50
2018-01-27T11:06:59.639Z,8.00
2018-01-27T11:09:30.388Z,10.20
2018-01-27T11:12:01.120Z,7.07
2018-01-27T11:14:27.692Z,7.07
2018-01-27T11:16:54.742Z,10.77
2018-01-27T11:19:21.821Z,8.93
2018-01-27T11:21:52.556Z,7.53
2018-01-27T11:24:20.964Z,10.67
2018-01-27T11:26:47.600Z,6.73
2018-01-27T11:29:20.505Z,12.20
2018-01-27T11:31:49.213Z,3.97
2018-01-27T11:34:16.218Z,12.83
2018-01-27T11:36:52.712Z,8.43
2018-01-27T11:39:24.608Z,8.50
2018-01-27T11:41:54.442Z,7.97
2018-01-27T11:44:21.027Z,7.37
2018-01-27T11:47:08.544Z,4.93
2018-01-27T11:49:45.968Z,6.03
2018-01-27T11:52:12.981Z,4.07
2018-01-27T11:54:39.610Z,4.30
2018-01-27T11:57:06.226Z,3.57
2018-01-27T11:59:32.868Z,2.93
2018-01-27T12:02:07.725Z,9.33
2018-01-27T12:04:34.336Z,8.20
2018-01-27T12:07:01.976Z,9.23
2018-01-27T12:09:28.592Z,8.27
2018-01-27T12:11:55.582Z,3.80
2018-01-27T12:14:22.281Z,6.90
2018-01-27T12:16:49.297Z,7.87
2018-01-27T12:19:15.980Z,8.43
2018-01-27T12:21:42.938Z,10.33
2018-01-27T12:24:13.773Z,5.93
2018-01-27T12:26:40.392Z,7.33
2018-01-27T12:29:07.557Z,9.53
2018-01-27T12:31:34.172Z,8.93
2018-01-27T12:34:01.184Z,8.63
2018-01-27T12:36:27.831Z,10.30
2018-01-27T12:38:54.423Z,6.73
2018-01-27T12:41:21.047Z,8.57
2018-01-27T12:43:48.013Z,4.57
2018-01-27T12:46:14.703Z,9.40
2018-01-27T12:48:41.389Z,6.93
2018-01-27T12:51:08.052Z,5.30
2018-01-27T12:53:34.692Z,8.90
2018-01-27T12:59:05.159Z,3.67
2018-01-27T13:01:32.241Z,9.30
2018-01-27T13:03:58.856Z,2.53
2018-01-27T13:06:25.439Z,9.70
2018-01-27T13:08:52.088Z,10.00
2018-01-27T13:11:18.732Z,9.77
2018-01-27T13:13:56.717Z,6.73
2018-01-27T13:16:23.363Z,7.80
2018-01-27T13:18:49.974Z,6.90
2018-01-27T13:21:16.574Z,8.03
2018-01-27T13:23:43.193Z,9.23
2018-01-27T13:26:09.837Z,9.47
2018-01-27T13:28:36.495Z,9.40
2018-01-27T13:31:03.536Z,10.80
2018-01-27T13:33:30.161Z,4.93
2018-01-27T13:35:56.777Z,5.33
2018-01-27T13:38:23.444Z,9.77
2018-01-27T13:40:50.087Z,4.30
2018-01-27T13:43:16.766Z,7.13
2018-01-27T13:45:43.468Z,4.43
2018-01-27T13:48:10.079Z,8.97
2018-01-27T13:50:36.682Z,8.47
2018-01-27T13:53:03.354Z,6.20
2018-01-27T13:55:29.974Z,6.77
2018-01-27T13:57:56.671Z,6.87
2018-01-27T14:00:23.299Z,6.27
2018-01-27T14:02:49.911Z,6.37
2018-01-27T14:05:16.589Z,8.03
2018-01-27T14:07:43.606Z,5.63
2018-01-27T14:10:10.307Z,4.27
2018-01-27T14:12:36.983Z,6.63
2018-01-27T14:15:03.711Z,5.17
2018-01-27T14:17:30.287Z,6.50
2018-01-27T14:19:57.271Z,7.40
2018-01-27T14:22:24.914Z,5.43
2018-01-27T14:24:51.530Z,3.90
2018-01-27T14:27:18.148Z,3.10
2018-01-27T14:29:44.764Z,7.27
2018-01-27T14:35:20.747Z,3.27
2018-01-27T14:37:47.362Z,4.90
2018-01-27T14:40:13.991Z,7.43
2018-01-27T14:42:40.988Z,8.43
2018-01-27T14:45:07.587Z,4.47
2018-01-27T14:47:34.232Z,5.27
2018-01-27T14:50:00.867Z,9.83
2018-01-27T14:52:27.564Z,7.40
2018-01-27T14:54:54.568Z,8.00
2018-01-27T14:57:21.229Z,9.23
2018-01-27T14:59:47.914Z,8.43
2018-01-27T15:02:15.175Z,10.87
2018-01-27T15:04:41.861Z,8.63
2018-01-27T15:07:08.556Z,8.67
2018-01-27T15:09:35.240Z,8.97
2018-01-27T15:12:07.209Z,11.73
2018-01-27T15:14:33.855Z,9.73
2018-01-27T15:17:00.905Z,10.17
2018-01-27T15:19:27.927Z,13.30
2018-01-27T15:21:54.509Z,8.00
2018-01-27T15:24:21.141Z,9.60
2018-01-27T15:26:48.150Z,12.13
2018-01-27T15:29:15.224Z,13.13
2018-01-27T15:31:41.818Z,7.30
2018-01-27T15:34:33.716Z,11.10
2018-01-27T15:37:00.459Z,6.17
2018-01-27T15:39:27.166Z,10.80
2018-01-27T15:41:53.763Z,9.83
2018-01-27T15:44:25.527Z,5.73
2018-01-27T15:46:52.611Z,6.97
2018-01-27T15:49:19.631Z,10.13
2018-01-27T15:51:46.384Z,5.03
2018-01-27T15:54:13.547Z,6.00
2018-01-27T15:56:40.166Z,10.60
2018-01-27T15:59:06.804Z,11.73
2018-01-27T16:01:49.481Z,5.60
2018-01-27T16:04:16.856Z,6.33
2018-01-27T16:06:48.076Z,7.47
2018-01-27T16:09:14.761Z,9.77
2018-01-27T16:11:41.356Z,11.17
2018-01-27T16:14:08.070Z,9.23
2018-01-27T16:16:35.161Z,11.53
2018-01-27T16:19:01.786Z,9.77
2018-01-27T16:21:28.617Z,9.53
2018-01-27T16:23:55.341Z,11.10
2018-01-27T16:26:22.425Z,9.07
2018-01-27T16:28:49.092Z,9.63
2018-01-27T16:31:15.830Z,7.00
2018-01-27T16:33:42.500Z,10.87
2018-01-27T16:36:09.588Z,9.73
2018-01-27T16:38:36.266Z,4.53
2018-01-27T16:41:02.910Z,11.40
2018-01-27T16:43:29.550Z,10.60
2018-01-27T16:45:56.387Z,7.80
2018-01-27T16:48:23.064Z,10.17
2018-01-27T16:50:49.715Z,11.07
2018-01-27T16:53:16.350Z,7.47
2018-01-27T16:55:43.019Z,10.43
2018-01-27T16:58:09.668Z,10.93
2018-01-27T17:00:36.327Z,9.43
2018-01-27T17:03:03.964Z,10.47
2018-01-27T17:05:30.595Z,8.93
2018-01-27T17:07:59.274Z,6.27
2018-01-27T17:10:26.004Z,10.67
2018-01-27T17:12:52.696Z,7.47
2018-01-27T17:15:21.348Z,13.53
2018-01-27T17:17:49.911Z,9.07
2018-01-27T17:20:16.557Z,10.60
2018-01-27T17:22:43.463Z,10.70
2018-01-27T17:25:10.551Z,10.67
2018-01-27T17:27:37.163Z,10.03
2018-01-27T17:30:04.210Z,12.27
2018-01-27T17:32:30.846Z,11.20
2018-01-27T17:34:57.433Z,8.00
2018-01-27T17:37:42.394Z,12.60
2018-01-27T17:40:09.035Z,10.90
2018-01-27T17:42:35.661Z,11.13
2018-01-27T17:45:02.357Z,8.00
2018-01-27T17:47:29.354Z,10.80
2018-01-27T17:49:56.014Z,12.03
2018-01-27T17:52:22.594Z,15.53
2018-01-27T17:54:49.252Z,15.13
2018-01-27T17:57:15.914Z,7.73
2018-01-27T17:59:42.552Z,10.30
2018-01-27T18:02:09.213Z,9.53
2018-01-27T18:04:35.885Z,12.00
2018-01-27T18:07:09.777Z,15.27
2018-01-27T18:09:36.857Z,13.30
2018-01-27T18:12:10.394Z,8.47
2018-01-27T18:14:41.438Z,11.10
2018-01-27T18:17:08.043Z,10.10
2018-01-27T18:19:34.777Z,9.80
2018-01-27T18:22:01.731Z,9.07
2018-01-27T18:24:29.415Z,8.40
2018-01-27T18:26:56.065Z,8.00
2018-01-27T18:29:23.209Z,14.13
2018-01-27T18:31:49.851Z,12.77
2018-01-27T18:34:16.445Z,12.63
2018-01-27T18:36:57.718Z,8.87
2018-01-27T18:39:24.291Z,14.10
2018-01-27T18:41:50.900Z,10.30
2018-01-27T18:44:17.590Z,9.70
2018-01-27T18:47:04.982Z,11.10
2018-01-27T18:49:31.898Z,10.27
2018-01-27T18:51:58.505Z,12.47
2018-01-27T18:54:25.587Z,10.70
2018-01-27T18:56:52.465Z,10.67
2018-01-27T18:59:19.093Z,6.53
2018-01-27T19:01:45.710Z,9.07
2018-01-27T19:04:12.332Z,6.63
2018-01-27T19:06:38.950Z,8.07
2018-01-27T19:09:05.968Z,8.47
2018-01-27T19:11:32.624Z,9.63
2018-01-27T19:13:59.240Z,7.83
2018-01-27T19:16:25.902Z,6.07
2018-01-27T19:18:58.768Z,7.80
2018-01-27T19:21:25.411Z,6.73
2018-01-27T19:23:53.019Z,5.30
2018-01-27T19:26:19.667Z,8.47
2018-01-27T19:28:51.301Z,5.37
2018-01-27T19:34:17.194Z,7.00
2018-01-27T19:37:05.149Z,7.77
2018-01-27T19:39:31.760Z,8.93
2018-01-27T19:41:59.487Z,3.73
2018-01-27T19:44:26.091Z,6.13
2018-01-27T19:46:57.478Z,7.07
2018-01-27T19:49:24.151Z,5.63
2018-01-27T19:51:50.810Z,7.93
2018-01-27T19:54:28.783Z,8.27
2018-01-27T19:56:55.447Z,4.83
2018-01-27T19:59:22.083Z,5.50
2018-01-27T20:01:53.175Z,7.47
2018-01-27T20:04:20.194Z,6.67
2018-01-27T20:06:46.856Z,6.83
2018-01-27T20:09:18.909Z,4.33
2018-01-27T20:11:46.041Z,5.93
2018-01-27T20:14:12.629Z,5.03
2018-01-27T20:16:40.837Z,5.57
2018-01-27T20:19:07.418Z,6.90
2018-01-27T20:21:34.405Z,6.40
2018-01-27T20:24:01.180Z,6.40
2018-01-27T20:26:48.351Z,5.67
2018-01-27T20:29:14.965Z,4.87
2018-01-27T20:31:41.605Z,5.07
2018-01-27T20:34:18.243Z,4.37
2018-01-27T20:36:44.894Z,6.87
2018-01-27T20:39:12.176Z,3.93
2018-01-27T20:41:38.855Z,2.30
2018-01-27T20:44:05.803Z,5.37
2018-01-27T20:46:32.436Z,5.30
2018-01-27T20:48:59.035Z,5.83
2018-01-27T20:51:26.110Z,6.03
2018-01-27T20:53:52.935Z,7.53
2018-01-27T20:56:19.520Z,5.53
2018-01-27T20:58:46.184Z,6.90
2018-01-27T21:01:13.200Z,7.47
2018-01-27T21:03:39.861Z,5.87
2018-01-27T21:06:08.886Z,4.40
2018-01-27T21:08:35.507Z,4.80
2018-01-27T21:11:02.525Z,5.17
2018-01-27T21:13:29.162Z,4.63
2018-01-27T21:16:01.796Z,4.00
2018-01-27T21:18:28.632Z,6.03
2018-01-27T21:21:13.201Z,3.67
2018-01-27T21:23:40.061Z,3.97
2018-01-27T21:26:06.779Z,4.07
2018-01-27T21:28:33.505Z,5.20
2018-01-27T21:33:52.268Z,5.60
2018-01-27T21:36:19.298Z,2.80
2018-01-27T21:38:45.943Z,3.63
2018-01-27T21:41:34.253Z,5.90
2018-01-27T21:44:01.147Z,4.53
2018-01-27T21:46:28.145Z,5.77
2018-01-27T21:48:54.803Z,5.67
2018-01-27T21:51:21.486Z,3.73
2018-01-27T21:53:48.151Z,4.00
2018-01-27T21:56:14.772Z,4.60
2018-01-27T21:58:41.422Z,4.70
2018-01-27T22:01:08.001Z,3.90
2018-01-27T22:03:34.987Z,5.13
2018-01-27T22:06:01.637Z,3.43
2018-01-27T22:08:28.555Z,3.83
2018-01-27T22:10:55.542Z,2.57
2018-01-27T22:13:22.126Z,3.57
2018-01-27T22:15:49.139Z,5.10
2018-01-27T22:18:16.142Z,2.23
2018-01-27T22:20:43.697Z,3.37
2018-01-27T22:23:10.255Z,4.43
2018-01-27T22:25:37.189Z,4.13
2018-01-27T22:28:03.759Z,2.53
2018-01-27T22:30:34.996Z,3.30
2018-01-27T22:33:01.840Z,1.20
2018-01-27T22:35:28.448Z,2.43
2018-01-27T22:37:55.254Z,3.33
2018-01-27T22:40:47.838Z,3.47
2018-01-27T22:46:26.203Z,2.30
2018-01-27T22:48:53.798Z,2.57
2018-01-27T22:51:20.452Z,3.53
2018-01-27T22:53:47.117Z,3.37
2018-01-27T22:56:13.683Z,4.07
2018-01-27T22:58:42.206Z,4.43
2018-01-27T23:01:14.996Z,3.53
2018-01-27T23:03:42.008Z,2.67
2018-01-27T23:06:08.667Z,2.83
2018-01-27T23:08:35.329Z,2.50
2018-01-27T23:11:11.883Z,2.60
2018-01-27T23:13:39.196Z,2.67
2018-01-27T23:16:05.774Z,2.70
2018-01-27T23:18:32.429Z,2.70
2018-01-27T23:20:59.334Z,3.67
2018-01-27T23:23:26.050Z,2.03
2018-01-27T23:25:52.678Z,3.33
2018-01-27T23:28:19.333Z,2.50
2018-01-27T23:30:45.943Z,2.67
2018-01-27T23:33:12.520Z,3.60
2018-01-27T23:35:39.156Z,3.83
2018-01-27T23:38:05.730Z,3.77
2018-01-27T23:40:32.718Z,2.80
2018-01-27T23:42:59.390Z,2.50
2018-01-27T23:45:25.967Z,4.53
2018-01-27T23:47:52.558Z,4.00
2018-01-27T23:50:19.202Z,2.83
2018-01-27T23:52:45.805Z,4.30
2018-01-27T23:55:17.698Z,3.93
2018-01-27T23:57:44.340Z,4.47
